Time;durP1;ratioP1;P1;durP2;ratioP2;P2;SDS_P1;SDS_P2;PMS_P1;PMS_P2;Temp;Humidity;BMP_temperature;BMP_pressure;BME280_temperature;BME280_humidity;BME280_pressure;Samples;Min_cycle;Max_cycle;Signal;HPM_P1;HPM_P2
2022/01/25 00:09:16;;;;;;;24.33;8.63;;;-1.70;99.90;;;;;;5049120;28;20094;-81
2022/01/25 00:28:38;;;;;;;22.80;8.40;;;-1.80;99.90;;;;;;5053370;28;20040;-81
2022/01/25 00:31:13;;;;;;;23.65;8.80;;;-1.80;99.90;;;;;;5052958;28;20052;-81
2022/01/25 00:33:51;;;;;;;19.45;8.32;;;-1.80;99.90;;;;;;5035804;28;20033;-81
2022/01/25 00:36:26;;;;;;;19.95;7.60;;;-1.80;99.90;;;;;;5051283;28;20033;-81
2022/01/25 00:38:58;;;;;;;21.10;8.38;;;-1.80;99.90;;;;;;5034201;28;20032;-81
2022/01/25 00:41:25;;;;;;;22.05;8.27;;;-1.80;99.90;;;;;;5052107;28;20058;-81
2022/01/25 00:44:12;;;;;;;19.73;8.00;;;-1.80;99.90;;;;;;5050897;28;20025;-81
2022/01/25 00:46:50;;;;;;;21.73;8.13;;;-1.80;99.90;;;;;;5051445;28;20426;-81
2022/01/25 00:49:25;;;;;;;20.48;7.35;;;-1.70;99.90;;;;;;5034537;28;20048;-81
2022/01/25 00:56:50;;;;;;;23.23;8.05;;;-1.80;99.90;;;;;;5067691;28;20062;-81
2022/01/25 00:59:26;;;;;;;18.58;7.82;;;-1.80;99.90;;;;;;5034893;28;20445;-81
2022/01/25 01:01:55;;;;;;;19.25;7.35;;;-1.80;99.90;;;;;;5051694;28;20071;-81
2022/01/25 01:04:21;;;;;;;23.20;8.55;;;-1.90;99.90;;;;;;5035160;28;20120;-81
2022/01/25 01:06:48;;;;;;;20.10;7.57;;;-1.90;99.90;;;;;;5048325;28;20029;-81
2022/01/25 01:09:17;;;;;;;22.77;8.13;;;-1.90;99.90;;;;;;5058204;28;20095;-81
2022/01/25 01:11:54;;;;;;;23.60;8.98;;;-2.00;99.90;;;;;;5051746;28;20021;-81
2022/01/25 01:14:49;;;;;;;25.10;8.43;;;-2.00;99.90;;;;;;5036055;28;20440;-81
2022/01/25 01:42:13;;;;;;;23.40;9.57;;;-2.10;99.90;;;;;;5035398;28;20108;-81
2022/01/25 01:47:49;;;;;;;20.75;10.10;;;-2.00;99.90;;;;;;5051526;28;20502;-81
2022/01/25 01:50:27;;;;;;;23.65;9.18;;;-2.00;99.90;;;;;;5051156;28;20498;-81
2022/01/25 01:52:54;;;;;;;20.23;8.00;;;-2.00;99.90;;;;;;5038711;28;20036;-81
2022/01/25 01:55:21;;;;;;;21.73;8.93;;;-2.00;99.90;;;;;;5064773;28;20033;-81
2022/01/25 01:57:59;;;;;;;22.40;8.50;;;-2.00;99.90;;;;;;5047234;28;20461;-81
2022/01/25 02:00:39;;;;;;;18.90;7.75;;;-2.00;99.90;;;;;;5048249;28;20025;-81
2022/01/25 02:03:06;;;;;;;23.45;8.45;;;-2.00;99.90;;;;;;5048176;28;20041;-81
2022/01/25 02:05:33;;;;;;;26.83;8.02;;;-1.90;99.90;;;;;;5033070;28;20488;-81
2022/01/25 02:08:00;;;;;;;25.95;8.90;;;-1.90;99.90;;;;;;5034551;28;20097;-81
2022/01/25 02:10:29;;;;;;;19.65;8.95;;;-1.90;99.90;;;;;;5031711;28;20085;-81
2022/01/25 02:12:56;;;;;;;21.33;8.65;;;-1.90;99.90;;;;;;5041688;28;20122;-80
2022/01/25 02:15:25;;;;;;;26.27;8.82;;;-2.00;99.90;;;;;;5051215;28;20029;-81
2022/01/25 02:22:24;;;;;;;22.77;8.20;;;-2.00;99.90;;;;;;5047285;28;20034;-81
2022/01/25 02:23:28;;;;;;;19.17;7.78;;;-2.00;99.90;;;;;;5065477;28;20098;-80
2022/01/25 02:25:57;;;;;;;33.28;9.85;;;-2.10;99.90;;;;;;5031060;28;20091;-81
2022/01/25 02:28:36;;;;;;;26.63;9.88;;;-2.10;99.90;;;;;;5031087;28;20040;-81
2022/01/25 02:31:07;;;;;;;29.05;10.55;;;-2.10;99.90;;;;;;5048051;28;20026;-81
2022/01/25 02:33:33;;;;;;;22.83;9.88;;;-2.00;99.90;;;;;;5041894;28;20029;-81
2022/01/25 02:36:02;;;;;;;26.88;10.07;;;-2.00;99.90;;;;;;5051039;28;20380;-81
2022/01/25 02:38:31;;;;;;;22.98;9.95;;;-2.00;99.90;;;;;;5041113;28;20061;-81
2022/01/25 02:40:58;;;;;;;24.63;10.77;;;-2.10;99.90;;;;;;5046674;28;20068;-82
2022/01/25 02:43:25;;;;;;;26.65;9.98;;;-2.10;99.90;;;;;;5051058;28;20040;-81
2022/01/25 02:48:57;;;;;;;24.25;10.35;;;-2.20;99.90;;;;;;5045846;28;20026;-81
2022/01/25 02:51:36;;;;;;;23.55;10.25;;;-2.30;99.90;;;;;;5065349;28;20033;-81
2022/01/25 02:54:03;;;;;;;24.63;9.68;;;-2.30;99.90;;;;;;5050968;28;20453;-81
2022/01/25 02:56:30;;;;;;;26.42;11.20;;;-2.30;99.90;;;;;;5052341;28;20505;-80
2022/01/25 02:58:59;;;;;;;26.95;10.70;;;-2.30;99.90;;;;;;5049059;28;20100;-81
2022/01/25 03:01:24;;;;;;;24.60;10.15;;;-2.30;99.90;;;;;;5050660;28;20053;-81
2022/01/25 03:03:50;;;;;;;22.50;9.48;;;-2.20;99.90;;;;;;5049949;28;20064;-81
2022/01/25 03:06:19;;;;;;;26.30;10.45;;;-2.20;99.90;;;;;;5032642;28;20033;-81
2022/01/25 03:08:45;;;;;;;30.50;9.82;;;-2.20;99.90;;;;;;5051846;28;20026;-81
2022/01/25 03:11:14;;;;;;;24.52;9.95;;;-2.20;99.90;;;;;;5035272;28;20432;-80
2022/01/25 03:13:52;;;;;;;23.40;10.18;;;-2.10;99.90;;;;;;5051951;28;20036;-82
2022/01/25 03:16:46;;;;;;;33.22;9.70;;;-2.10;99.90;;;;;;5046225;28;20116;-83
2022/01/25 03:19:42;;;;;;;31.20;10.85;;;-2.00;99.90;;;;;;5050749;28;20067;-81
2022/01/25 03:25:03;;;;;;;55.33;12.07;;;-1.90;99.90;;;;;;5053233;28;20115;-80
2022/01/25 03:27:32;;;;;;;53.67;10.55;;;-1.90;99.90;;;;;;5051146;28;20045;-82
2022/01/25 03:29:58;;;;;;;56.80;10.35;;;-1.90;99.90;;;;;;5068267;23;20040;-81
2022/01/25 03:32:23;;;;;;;45.35;9.13;;;-1.90;99.90;;;;;;5060856;28;20043;-81
2022/01/25 03:34:49;;;;;;;54.45;9.32;;;-1.90;99.90;;;;;;5060635;28;20032;-81
2022/01/25 03:37:15;;;;;;;71.25;9.20;;;-1.80;99.90;;;;;;5040916;28;20021;-81
2022/01/25 03:39:40;;;;;;;35.45;8.27;;;-1.80;99.90;;;;;;5036986;28;20028;-81
2022/01/25 03:42:09;;;;;;;38.63;7.13;;;-1.80;99.90;;;;;;5062746;28;20062;-82
2022/01/25 03:44:35;;;;;;;64.82;8.05;;;-1.80;99.90;;;;;;5061472;28;20440;-81
2022/01/25 03:47:08;;;;;;;43.60;6.82;;;-1.80;99.90;;;;;;5043352;28;20056;-81
2022/01/25 03:49:52;;;;;;;25.95;6.95;;;-1.80;99.90;;;;;;5056447;28;20028;-82
2022/01/25 03:52:29;;;;;;;22.73;7.07;;;-1.90;99.90;;;;;;5047639;28;20032;-81
2022/01/25 03:55:01;;;;;;;16.48;6.35;;;-1.90;99.90;;;;;;5061369;28;20036;-81
2022/01/25 03:57:31;;;;;;;27.40;7.78;;;-1.90;99.90;;;;;;5076370;28;20085;-81
2022/01/25 03:59:59;;;;;;;43.37;7.97;;;-1.90;99.90;;;;;;5061368;28;20042;-81
2022/01/25 04:02:31;;;;;;;38.47;7.50;;;-1.90;99.90;;;;;;5057751;28;20107;-81
2022/01/25 04:05:02;;;;;;;29.63;6.28;;;-1.90;99.90;;;;;;5042455;28;20081;-81
2022/01/25 04:07:42;;;;;;;32.30;7.80;;;-2.00;99.90;;;;;;5075851;28;20039;-81
2022/01/25 04:10:09;;;;;;;21.42;8.27;;;-2.00;99.90;;;;;;5059928;28;20040;-81
2022/01/25 04:12:34;;;;;;;43.30;8.02;;;-2.00;99.90;;;;;;5058920;28;20040;-82
2022/01/25 04:15:02;;;;;;;23.40;7.85;;;-2.00;99.90;;;;;;5057951;28;20032;-82
2022/01/25 04:17:34;;;;;;;51.10;7.40;;;-2.00;99.90;;;;;;5044428;28;20024;-82
2022/01/25 04:25:52;;;;;;;33.85;6.95;;;-1.90;99.90;;;;;;5057551;28;20094;-81
2022/01/25 04:28:21;;;;;;;28.95;6.32;;;-1.90;99.90;;;;;;5022136;28;20074;-82
2022/01/25 04:30:53;;;;;;;22.10;6.45;;;-1.90;99.90;;;;;;5052910;28;20033;-82
2022/01/25 04:33:37;;;;;;;22.00;6.00;;;-1.90;99.90;;;;;;5022138;28;20731;-81
2022/01/25 04:50:00;;;;;;;27.00;5.80;;;-1.80;99.90;;;;;;5058074;28;20082;-82
2022/01/25 04:52:31;;;;;;;26.45;5.60;;;-1.80;99.90;;;;;;5038040;28;20040;-82
2022/01/25 04:55:19;;;;;;;39.85;5.88;;;-1.80;99.90;;;;;;5022068;28;20032;-82
2022/01/25 04:57:56;;;;;;;18.77;5.85;;;-1.80;99.90;;;;;;5053485;28;20119;-82
2022/01/25 05:00:24;;;;;;;36.42;5.40;;;-1.70;99.90;;;;;;5057381;28;20038;-82
2022/01/25 05:03:07;;;;;;;34.15;7.00;;;-1.70;99.90;;;;;;5056926;28;20573;-82
2022/01/25 05:05:56;;;;;;;17.70;4.85;;;-1.70;99.90;;;;;;5059212;28;20122;-82
2022/01/25 05:11:08;;;;;;;67.05;6.35;;;-1.70;99.90;;;;;;5089855;28;20082;-82
2022/01/25 05:13:52;;;;;;;44.00;5.25;;;-1.70;99.90;;;;;;5055474;28;20107;-82
2022/01/25 05:16:34;;;;;;;43.55;7.05;;;-1.70;99.90;;;;;;5072463;28;20031;-83
2022/01/25 05:24:57;;;;;;;32.30;5.07;;;-1.80;99.90;;;;;;5074723;28;20123;-82
2022/01/25 05:27:29;;;;;;;81.20;6.55;;;-1.80;99.90;;;;;;5087211;28;20544;-82
2022/01/25 05:30:01;;;;;;;32.20;5.25;;;-1.80;99.90;;;;;;5056304;28;20069;-83
2022/01/25 05:32:27;;;;;;;36.03;6.00;;;-1.90;99.90;;;;;;5073031;28;20122;-82
2022/01/25 05:34:53;;;;;;;23.88;6.47;;;-1.80;99.90;;;;;;5056505;28;20024;-82
2022/01/25 05:37:19;;;;;;;62.90;6.45;;;-1.80;99.90;;;;;;5044987;28;20066;-82
2022/01/25 05:39:49;;;;;;;50.10;6.15;;;-1.80;99.90;;;;;;5036206;28;20020;-83
2022/01/25 05:42:29;;;;;;;25.67;5.70;;;-1.80;99.90;;;;;;5031187;28;20039;-83
2022/01/25 05:47:47;;;;;;;22.00;5.13;;;-1.80;99.90;;;;;;5070723;28;20183;-82
2022/01/25 05:50:13;;;;;;;33.58;4.97;;;-1.80;99.90;;;;;;5070952;28;20434;-82
2022/01/25 05:52:40;;;;;;;43.35;6.22;;;-1.90;99.90;;;;;;5072596;28;20510;-83
2022/01/25 05:55:10;;;;;;;69.43;6.93;;;-1.90;99.90;;;;;;5072650;28;20057;-82
2022/01/25 05:57:36;;;;;;;15.85;4.88;;;-1.90;99.90;;;;;;5072311;28;20020;-82
2022/01/25 06:00:06;;;;;;;16.25;5.38;;;-1.90;99.90;;;;;;5070747;28;20431;-82
2022/01/25 06:02:33;;;;;;;31.92;5.75;;;-1.90;99.90;;;;;;5036119;28;20035;-82
2022/01/25 06:04:58;;;;;;;49.33;6.05;;;-1.90;99.90;;;;;;5019821;28;20101;-81
2022/01/25 06:07:27;;;;;;;38.13;5.78;;;-1.90;99.90;;;;;;5047328;28;20757;-82
2022/01/25 06:09:53;;;;;;;53.88;5.68;;;-1.90;99.90;;;;;;5056141;28;20040;-82
2022/01/25 06:12:26;;;;;;;74.43;6.70;;;-1.90;99.90;;;;;;5072466;28;20069;-82
2022/01/25 06:14:55;;;;;;;41.05;5.50;;;-2.00;99.90;;;;;;5056812;28;20567;-82
2022/01/25 06:17:20;;;;;;;55.22;5.22;;;-2.00;99.90;;;;;;5042558;28;20037;-82
2022/01/25 06:19:46;;;;;;;15.93;4.82;;;-2.00;99.90;;;;;;5038969;28;20032;-82
2022/01/25 06:22:12;;;;;;;25.73;5.65;;;-2.00;99.90;;;;;;5051743;28;20032;-82
2022/01/25 06:24:38;;;;;;;37.22;5.28;;;-2.00;99.90;;;;;;5019877;28;20064;-82
2022/01/25 06:27:10;;;;;;;13.70;5.43;;;-2.00;99.90;;;;;;5028150;28;20035;-82
2022/01/25 06:29:36;;;;;;;28.85;5.35;;;-2.00;99.90;;;;;;5056122;28;20127;-83
2022/01/25 06:32:02;;;;;;;26.52;5.43;;;-2.00;99.90;;;;;;5055507;28;20035;-82
2022/01/25 06:34:28;;;;;;;17.50;5.60;;;-2.00;99.90;;;;;;5072420;28;20150;-82
2022/01/25 06:36:54;;;;;;;59.72;5.30;;;-1.90;99.90;;;;;;5055312;28;20518;-82
2022/01/25 06:39:20;;;;;;;37.97;4.43;;;-1.90;99.90;;;;;;5055846;28;20036;-82
2022/01/25 06:41:52;;;;;;;15.43;5.25;;;-1.90;99.90;;;;;;5053605;28;20020;-82
2022/01/25 06:44:18;;;;;;;31.70;5.70;;;-1.90;99.90;;;;;;5024136;28;20041;-82
2022/01/25 06:46:46;;;;;;;15.70;4.65;;;-1.90;99.90;;;;;;5045302;28;20456;-82
2022/01/25 06:49:13;;;;;;;23.27;4.72;;;-1.90;99.90;;;;;;5059076;28;20471;-82
2022/01/25 06:51:39;;;;;;;15.80;5.22;;;-1.80;99.90;;;;;;5043252;28;20032;-81
2022/01/25 06:54:10;;;;;;;21.80;5.20;;;-1.80;99.90;;;;;;5051258;28;20047;-82
2022/01/25 06:56:36;;;;;;;18.08;4.88;;;-1.70;99.90;;;;;;5051918;28;20016;-82
2022/01/25 06:59:02;;;;;;;30.40;5.32;;;-1.70;99.90;;;;;;5039321;28;20596;-83
2022/01/25 07:01:29;;;;;;;57.75;5.95;;;-1.70;99.90;;;;;;5059568;28;20673;-82
2022/01/25 07:03:55;;;;;;;34.47;5.90;;;-1.70;99.90;;;;;;5059432;28;20035;-82
2022/01/25 07:06:21;;;;;;;33.72;5.03;;;-1.70;99.90;;;;;;5074596;28;20582;-82
2022/01/25 07:08:49;;;;;;;25.65;5.75;;;-1.70;99.90;;;;;;5027787;28;20475;-83
2022/01/25 07:11:15;;;;;;;27.42;4.30;;;-1.70;99.90;;;;;;5039406;28;20024;-82
2022/01/25 07:13:46;;;;;;;19.48;4.68;;;-1.70;99.90;;;;;;5049940;28;20556;-82
2022/01/25 07:16:15;;;;;;;39.03;5.03;;;-1.70;99.90;;;;;;5023771;28;20056;-82
2022/01/25 07:18:41;;;;;;;22.63;5.15;;;-1.70;99.90;;;;;;5022369;28;20025;-83
2022/01/25 07:21:07;;;;;;;31.88;5.90;;;-1.70;99.90;;;;;;5055567;28;20036;-82
2022/01/25 07:23:32;;;;;;;25.45;5.22;;;-1.70;99.90;;;;;;5055519;28;20032;-82
2022/01/25 07:26:01;;;;;;;41.00;6.28;;;-1.70;99.90;;;;;;5033357;28;20044;-82
2022/01/25 07:28:28;;;;;;;23.30;5.80;;;-1.70;99.90;;;;;;5040654;28;20402;-82
2022/01/25 07:30:54;;;;;;;16.38;5.40;;;-1.70;99.90;;;;;;5055511;28;20139;-83
2022/01/25 07:33:27;;;;;;;24.58;5.30;;;-1.60;99.90;;;;;;5039366;28;20202;-82
2022/01/25 07:36:00;;;;;;;32.85;5.47;;;-1.60;99.90;;;;;;5064866;28;20028;-83
2022/01/25 07:38:27;;;;;;;26.80;5.72;;;-1.60;99.90;;;;;;5039655;28;20108;-83
2022/01/25 07:40:53;;;;;;;14.60;5.03;;;-1.60;99.90;;;;;;5021826;28;20101;-83
2022/01/25 07:43:18;;;;;;;16.60;5.60;;;-1.60;99.90;;;;;;5021233;28;20079;-83
2022/01/25 07:45:50;;;;;;;21.17;5.18;;;-1.50;99.90;;;;;;5038398;28;20072;-83
2022/01/25 07:48:16;;;;;;;18.15;5.70;;;-1.50;99.90;;;;;;5023207;28;20021;-83
2022/01/25 07:50:42;;;;;;;91.22;7.00;;;-1.40;99.90;;;;;;5038065;28;20505;-83
2022/01/25 07:53:07;;;;;;;74.95;6.38;;;-1.30;99.90;;;;;;5053819;28;20036;-83
2022/01/25 07:55:34;;;;;;;34.33;5.82;;;-1.30;99.90;;;;;;5054331;28;20027;-83
2022/01/25 07:58:00;;;;;;;16.40;5.97;;;-1.30;99.90;;;;;;5054340;28;20028;-83
2022/01/25 08:00:26;;;;;;;17.17;6.13;;;-1.20;99.90;;;;;;5037721;28;20387;-83
2022/01/25 08:02:52;;;;;;;70.03;6.13;;;-1.10;99.90;;;;;;5037587;28;20029;-83
2022/01/25 08:05:19;;;;;;;24.08;5.50;;;-1.10;99.90;;;;;;5037653;28;20043;-82
2022/01/25 08:07:46;;;;;;;30.17;5.75;;;-1.10;99.90;;;;;;5034259;28;20032;-83
2022/01/25 08:10:16;;;;;;;34.35;4.82;;;-1.00;99.90;;;;;;5056051;28;20094;-84
2022/01/25 08:12:42;;;;;;;73.33;5.80;;;-1.00;99.90;;;;;;5073903;28;20032;-83
2022/01/25 08:15:09;;;;;;;21.83;5.68;;;-0.90;99.90;;;;;;5058192;28;20728;-83
2022/01/25 08:17:36;;;;;;;20.92;5.18;;;-0.90;99.90;;;;;;5071632;28;20028;-83
2022/01/25 08:20:15;;;;;;;28.70;5.93;;;-0.90;99.90;;;;;;5073998;28;20024;-82
2022/01/25 08:22:44;;;;;;;31.33;6.22;;;-0.80;99.90;;;;;;5058092;28;20024;-83
2022/01/25 08:25:09;;;;;;;16.63;6.35;;;-0.80;99.90;;;;;;5057627;28;20059;-83
2022/01/25 08:27:35;;;;;;;22.67;5.80;;;-0.70;99.90;;;;;;5031186;28;20520;-83
2022/01/25 08:30:04;;;;;;;17.77;5.82;;;-0.70;99.90;;;;;;5053937;28;20043;-82
2022/01/25 08:32:31;;;;;;;14.85;5.50;;;-0.60;99.90;;;;;;5053666;28;20055;-82
2022/01/25 08:34:58;;;;;;;25.52;6.55;;;-0.60;99.90;;;;;;5021507;28;20067;-83
2022/01/25 08:37:24;;;;;;;24.55;7.07;;;-0.50;99.90;;;;;;5044338;28;20029;-83
2022/01/25 08:39:53;;;;;;;32.13;5.97;;;-0.50;99.90;;;;;;5037163;28;20024;-83
2022/01/25 08:42:21;;;;;;;30.17;6.43;;;-0.50;99.90;;;;;;5020513;28;20517;-83
2022/01/25 08:44:53;;;;;;;37.00;6.78;;;-0.50;99.90;;;;;;5037632;28;20044;-82
2022/01/25 08:47:25;;;;;;;56.65;6.20;;;-0.50;99.90;;;;;;5053411;28;20028;-82
2022/01/25 08:49:52;;;;;;;92.57;7.57;;;-0.60;99.90;;;;;;5037345;28;20028;-83
2022/01/25 08:52:20;;;;;;;36.47;6.00;;;-0.60;99.90;;;;;;5054999;28;20044;-82
2022/01/25 08:54:52;;;;;;;48.70;6.22;;;-0.60;99.90;;;;;;5051478;28;20025;-82
2022/01/25 08:57:18;;;;;;;31.05;5.25;;;-0.60;99.90;;;;;;5072732;28;20418;-84
2022/01/25 08:59:45;;;;;;;88.63;7.70;;;-0.60;99.90;;;;;;5063455;28;20025;-83
2022/01/25 09:02:11;;;;;;;24.67;5.88;;;-0.50;99.90;;;;;;5067989;28;20026;-83
2022/01/25 09:04:36;;;;;;;37.17;6.15;;;-0.50;99.90;;;;;;5020503;28;20111;-83
2022/01/25 09:07:14;;;;;;;44.22;7.20;;;-0.40;99.90;;;;;;5053060;28;20028;-83
2022/01/25 09:09:41;;;;;;;27.75;6.30;;;-0.40;99.90;;;;;;5051234;28;20039;-82
2022/01/25 09:12:08;;;;;;;30.20;6.63;;;-0.30;99.90;;;;;;5036659;28;20506;-83
2022/01/25 09:14:37;;;;;;;50.55;6.88;;;-0.20;99.90;;;;;;5036354;28;20043;-82
2022/01/25 09:17:10;;;;;;;87.72;10.25;;;-0.10;99.90;;;;;;5036645;28;20124;-83
2022/01/25 09:19:38;;;;;;;126.15;8.95;;;-0.10;99.90;;;;;;5037665;28;20086;-83
2022/01/25 09:22:05;;;;;;;105.65;7.88;;;-0.10;99.90;;;;;;5053160;28;20024;-82
2022/01/25 09:24:41;;;;;;;147.77;8.88;;;-0.10;99.90;;;;;;5051253;28;20028;-82
2022/01/25 09:27:08;;;;;;;20.73;5.90;;;-0.10;99.90;;;;;;5052809;28;20040;-83
2022/01/25 09:29:34;;;;;;;37.13;5.97;;;-0.10;99.90;;;;;;5052411;28;20546;-83
2022/01/25 09:32:00;;;;;;;78.78;6.47;;;0.00;99.90;;;;;;5053260;28;20028;-82
2022/01/25 09:34:29;;;;;;;16.05;5.63;;;0.00;99.90;;;;;;5036604;28;20530;-82
2022/01/25 09:36:59;;;;;;;99.75;8.35;;;0.00;99.90;;;;;;5076137;23;20126;-84
2022/01/25 09:39:24;;;;;;;92.67;8.43;;;0.10;99.90;;;;;;5076441;28;20463;-83
2022/01/25 09:41:52;;;;;;;22.75;6.30;;;0.10;99.90;;;;;;5107117;28;20312;-83
2022/01/25 09:44:23;;;;;;;16.38;6.80;;;0.10;99.90;;;;;;5071770;28;20032;-83
2022/01/25 09:46:53;;;;;;;41.70;6.60;;;0.20;99.90;;;;;;5072091;28;20036;-83
2022/01/25 09:49:19;;;;;;;38.05;6.50;;;0.20;99.90;;;;;;5072714;28;20028;-83
2022/01/25 09:51:51;;;;;;;36.42;6.68;;;0.20;99.90;;;;;;5088862;28;20456;-83
2022/01/25 09:54:17;;;;;;;23.65;7.18;;;0.30;99.90;;;;;;5071961;28;20044;-83
2022/01/25 09:56:45;;;;;;;54.67;6.78;;;0.30;99.90;;;;;;5053230;28;20494;-82
2022/01/25 09:59:15;;;;;;;47.97;6.55;;;0.40;99.90;;;;;;5037793;28;20032;-83
2022/01/25 10:01:41;;;;;;;39.67;7.22;;;0.50;99.90;;;;;;5055749;28;20067;-83
2022/01/25 10:04:33;;;;;;;34.95;7.95;;;0.50;99.90;;;;;;5071784;28;20565;-83
2022/01/25 10:06:58;;;;;;;43.15;6.75;;;0.50;99.90;;;;;;5082933;28;20036;-83
2022/01/25 10:09:26;;;;;;;24.13;6.97;;;0.40;99.90;;;;;;5039744;28;20044;-83
2022/01/25 10:11:53;;;;;;;19.98;7.22;;;0.40;99.90;;;;;;5077278;28;20400;-83
2022/01/25 10:14:36;;;;;;;18.52;6.95;;;0.40;99.90;;;;;;5051712;28;20405;-83
2022/01/25 10:17:02;;;;;;;34.72;7.20;;;0.30;99.90;;;;;;5057573;28;20033;-83
2022/01/25 10:19:28;;;;;;;14.70;6.78;;;0.40;99.90;;;;;;5039220;28;20025;-83
2022/01/25 10:22:00;;;;;;;40.35;6.70;;;0.50;99.90;;;;;;5056935;28;20396;-83
2022/01/25 10:24:29;;;;;;;42.22;6.85;;;0.50;99.90;;;;;;5073452;28;20025;-83
2022/01/25 10:27:03;;;;;;;123.32;10.23;;;0.50;99.90;;;;;;5071788;28;20094;-83
2022/01/25 10:29:36;;;;;;;55.67;7.03;;;0.50;99.90;;;;;;5075520;28;20055;-83
2022/01/25 10:32:14;;;;;;;27.60;7.80;;;0.40;99.90;;;;;;5084554;28;20363;-84
2022/01/25 10:35:13;;;;;;;51.30;7.15;;;0.40;99.90;;;;;;5096079;28;20035;-83
2022/01/25 10:37:44;;;;;;;44.13;8.13;;;0.40;99.90;;;;;;5073495;28;20036;-83
2022/01/25 10:40:14;;;;;;;41.90;6.57;;;0.50;99.90;;;;;;5075138;28;20024;-83
2022/01/25 10:42:47;;;;;;;47.38;7.80;;;0.50;99.90;;;;;;5059536;28;20021;-83
2022/01/25 10:45:19;;;;;;;25.70;6.60;;;0.50;99.90;;;;;;5092226;28;20062;-83
2022/01/25 10:47:55;;;;;;;22.00;6.30;;;0.50;99.90;;;;;;5074332;28;20502;-83
2022/01/25 10:50:23;;;;;;;29.60;6.47;;;0.60;99.90;;;;;;5060089;28;20036;-83
2022/01/25 10:53:05;;;;;;;24.95;7.93;;;0.50;99.90;;;;;;5088818;28;20040;-83
2022/01/25 10:56:01;;;;;;;99.35;7.28;;;0.60;99.90;;;;;;5074896;28;20028;-83
2022/01/25 10:58:38;;;;;;;21.15;6.38;;;0.70;99.90;;;;;;5078344;28;20062;-83
2022/01/25 11:01:04;;;;;;;24.98;7.28;;;0.60;99.90;;;;;;5052700;28;20037;-83
2022/01/25 11:03:42;;;;;;;29.65;6.40;;;0.60;99.90;;;;;;5088673;28;20285;-83
2022/01/25 11:06:20;;;;;;;74.35;8.18;;;0.60;99.90;;;;;;5091233;28;20024;-83
2022/01/25 11:08:49;;;;;;;49.55;6.05;;;0.60;99.90;;;;;;5058051;28;20503;-83
2022/01/25 11:11:32;;;;;;;20.13;7.15;;;0.60;99.90;;;;;;5073172;28;20040;-83
2022/01/25 11:14:50;;;;;;;26.52;6.60;;;0.60;99.90;;;;;;5075984;28;20405;-83
2022/01/25 11:16:43;;;;;;;41.28;6.32;;;0.60;99.90;;;;;;5070502;28;20120;-83
2022/01/25 11:19:11;;;;;;;22.58;6.93;;;0.70;99.90;;;;;;5071336;28;20143;-83
2022/01/25 11:21:39;;;;;;;22.45;6.82;;;0.70;99.90;;;;;;5038251;28;20457;-83
2022/01/25 11:24:09;;;;;;;70.22;7.57;;;0.80;99.90;;;;;;5073475;28;20509;-82
2022/01/25 11:26:38;;;;;;;19.92;7.20;;;0.70;99.90;;;;;;5069922;28;20270;-82
2022/01/25 11:29:06;;;;;;;20.23;7.18;;;0.70;99.90;;;;;;5061783;28;20040;-83
2022/01/25 11:31:32;;;;;;;29.60;7.53;;;0.80;99.90;;;;;;5058371;28;20028;-83
2022/01/25 11:33:58;;;;;;;32.67;7.20;;;1.00;99.90;;;;;;5059404;28;20050;-83
2022/01/25 11:36:31;;;;;;;20.55;8.25;;;1.00;99.90;;;;;;5037499;28;20494;-84
2022/01/25 11:38:57;;;;;;;22.13;8.48;;;1.10;99.90;;;;;;5072530;28;20393;-82
2022/01/25 11:41:25;;;;;;;25.17;8.35;;;1.30;99.90;;;;;;5035063;28;20025;-83
2022/01/25 11:44:14;;;;;;;54.72;7.95;;;1.40;99.90;;;;;;5051887;28;20031;-83
2022/01/25 11:46:42;;;;;;;43.72;8.63;;;1.30;99.90;;;;;;5086374;28;20038;-83
2022/01/25 11:49:26;;;;;;;82.90;8.43;;;1.20;99.90;;;;;;5089741;28;20448;-82
2022/01/25 11:52:12;;;;;;;39.65;7.75;;;1.20;99.90;;;;;;5054281;28;20501;-83
2022/01/25 11:54:38;;;;;;;20.70;7.68;;;1.10;99.90;;;;;;5057932;28;20024;-82
2022/01/25 11:57:12;;;;;;;42.63;8.95;;;1.00;99.90;;;;;;5053884;28;20567;-83
2022/01/25 11:59:39;;;;;;;46.00;8.50;;;1.10;99.90;;;;;;5054410;28;20035;-82
2022/01/25 12:02:04;;;;;;;39.50;7.20;;;1.10;99.90;;;;;;5037891;28;20035;-83
2022/01/25 12:04:30;;;;;;;147.75;10.90;;;1.10;99.90;;;;;;5054272;28;20481;-83
2022/01/25 12:07:03;;;;;;;28.52;9.40;;;1.10;99.90;;;;;;5054990;28;20037;-82
2022/01/25 12:09:50;;;;;;;98.03;9.70;;;1.10;99.90;;;;;;5058904;28;20510;-83
2022/01/25 12:12:17;;;;;;;43.63;8.45;;;1.10;99.90;;;;;;5063579;28;20032;-83
2022/01/25 12:14:52;;;;;;;27.02;8.20;;;1.10;99.90;;;;;;5047501;28;20043;-84
2022/01/25 12:17:29;;;;;;;62.83;8.48;;;1.20;99.90;;;;;;5075510;28;20425;-83
2022/01/25 12:20:02;;;;;;;31.85;7.88;;;1.20;99.90;;;;;;5044813;28;20480;-83
2022/01/25 12:22:37;;;;;;;78.05;9.50;;;1.20;99.90;;;;;;5058618;28;20074;-83
2022/01/25 12:25:11;;;;;;;45.17;7.20;;;1.00;99.90;;;;;;5076682;28;20066;-83
2022/01/25 12:27:41;;;;;;;23.77;9.10;;;1.00;99.90;;;;;;5090428;28;20024;-83
2022/01/25 12:30:13;;;;;;;103.40;9.18;;;1.10;99.90;;;;;;5073850;28;20028;-82
2022/01/25 12:33:08;;;;;;;83.75;9.95;;;1.10;99.90;;;;;;5091722;28;20139;-82
2022/01/25 12:35:59;;;;;;;98.60;9.20;;;1.20;99.90;;;;;;5090456;28;20036;-83
2022/01/25 12:38:41;;;;;;;46.53;7.90;;;1.20;99.90;;;;;;5062695;28;20029;-81
2022/01/25 12:41:08;;;;;;;29.58;8.63;;;1.20;99.90;;;;;;5053376;28;20070;-82
2022/01/25 12:43:44;;;;;;;34.72;9.43;;;1.20;99.90;;;;;;5020450;28;20119;-83
2022/01/25 12:46:13;;;;;;;52.58;10.57;;;1.30;99.90;;;;;;5064513;28;20027;-83
2022/01/25 12:48:48;;;;;;;31.10;9.47;;;1.40;99.90;;;;;;5042836;28;20029;-82
2022/01/25 12:51:19;;;;;;;31.75;8.65;;;1.50;99.90;;;;;;5080706;28;20266;-83
2022/01/25 12:53:55;;;;;;;47.55;11.40;;;1.60;99.90;;;;;;5091292;28;20024;-82
2022/01/25 12:56:24;;;;;;;52.83;9.65;;;1.60;99.90;;;;;;5073379;28;20050;-83
2022/01/25 12:58:56;;;;;;;31.23;8.77;;;1.60;99.90;;;;;;5056292;28;20024;-82
2022/01/25 13:01:24;;;;;;;64.43;7.95;;;1.70;99.90;;;;;;5073283;28;20480;-83
2022/01/25 13:04:01;;;;;;;38.78;8.48;;;1.70;99.90;;;;;;5072931;28;20039;-83
2022/01/25 13:06:31;;;;;;;41.92;8.80;;;1.60;99.90;;;;;;5053179;28;20055;-83
2022/01/25 13:12:10;;;;;;;97.50;9.13;;;1.40;99.90;;;;;;5074907;28;20044;-83
2022/01/25 13:14:50;;;;;;;28.55;7.90;;;1.30;99.90;;;;;;5056404;28;20035;-83
2022/01/25 13:17:17;;;;;;;;;;;1.30;99.90;;;;;;5037094;28;20405;-83
2022/01/25 13:20:09;;;;;;;31.40;9.43;;;1.30;99.90;;;;;;5053047;28;19909;-82
2022/01/25 13:22:42;;;;;;;57.33;9.23;;;1.30;99.90;;;;;;5066207;28;20063;-82
2022/01/25 13:27:47;;;;;;;158.68;11.88;;;1.30;99.90;;;;;;5090407;28;20376;-82
2022/01/25 13:33:02;;;;;;;35.72;9.65;;;1.30;99.90;;;;;;5051306;28;20094;-83
2022/01/25 13:35:33;;;;;;;26.60;10.23;;;1.30;99.90;;;;;;5064344;28;20044;-82
2022/01/25 13:38:21;;;;;;;;;;;1.30;99.90;;;;;;5056487;28;20089;-82
2022/01/25 13:46:32;;;;;;;107.63;12.55;;;1.50;99.90;;;;;;5063986;28;20373;-82
2022/01/25 13:49:13;;;;;;;91.25;11.00;;;1.40;99.90;;;;;;5056425;28;20031;-83
2022/01/25 13:51:45;;;;;;;157.68;12.30;;;1.40;99.90;;;;;;5062231;28;20550;-83
2022/01/25 13:54:13;;;;;;;59.00;11.05;;;1.30;99.90;;;;;;5052653;28;20421;-83
2022/01/25 13:56:39;;;;;;;38.25;10.52;;;1.30;99.90;;;;;;5051738;28;20109;-83
2022/01/25 13:59:14;;;;;;;111.32;12.23;;;1.20;99.90;;;;;;5052497;28;20136;-83
2022/01/25 14:01:46;;;;;;;102.32;11.75;;;1.20;99.90;;;;;;5053622;28;20028;-82
2022/01/25 14:04:33;;;;;;;43.45;10.88;;;1.20;99.90;;;;;;5062901;28;20051;-83
2022/01/25 14:07:00;;;;;;;104.07;13.60;;;1.30;99.90;;;;;;5055108;28;20028;-83
2022/01/25 14:09:34;;;;;;;55.28;10.90;;;1.20;99.90;;;;;;5047332;28;20382;-83
2022/01/25 14:25:30;;;;;;;81.35;12.50;;;1.10;99.90;;;;;;5056047;28;20028;-83
2022/01/25 14:27:59;;;;;;;42.28;11.75;;;1.10;99.90;;;;;;5053330;28;20105;-82
2022/01/25 14:30:25;;;;;;;196.07;15.45;;;1.10;99.90;;;;;;5051828;28;20486;-83
2022/01/25 14:33:02;;;;;;;85.13;12.45;;;1.00;99.90;;;;;;5054609;28;20028;-83
2022/01/25 14:35:31;;;;;;;43.95;12.18;;;0.90;99.90;;;;;;5069293;28;20111;-82
2022/01/25 14:38:00;;;;;;;112.82;13.02;;;0.90;99.90;;;;;;5054618;28;20044;-82
2022/01/25 14:40:27;;;;;;;71.07;12.02;;;0.90;99.90;;;;;;5061016;28;20060;-83
2022/01/25 14:42:55;;;;;;;36.78;10.70;;;0.90;99.90;;;;;;5071239;28;20485;-83
2022/01/25 14:45:29;;;;;;;65.35;10.65;;;0.80;99.90;;;;;;5050820;28;20497;-83
2022/01/25 14:48:00;;;;;;;69.50;10.52;;;0.80;99.90;;;;;;5034974;28;20040;-83
2022/01/25 14:50:39;;;;;;;38.85;10.48;;;0.80;99.90;;;;;;5057722;28;20093;-85
2022/01/25 14:53:13;;;;;;;38.15;10.68;;;0.80;99.90;;;;;;5054984;28;20921;-85
2022/01/25 14:55:42;;;;;;;80.78;12.02;;;0.80;99.90;;;;;;5057750;28;20037;-85
2022/01/25 14:58:24;;;;;;;51.15;10.80;;;0.80;99.90;;;;;;5035972;28;20029;-85
2022/01/25 15:00:55;;;;;;;48.55;11.30;;;0.80;99.90;;;;;;5041992;28;20031;-85
2022/01/25 15:03:23;;;;;;;53.63;10.30;;;0.80;99.90;;;;;;5041348;28;20508;-85